sensor_id;sensor_type;location;lat;lon;timestamp;pressure;altitude;pressure_sealevel;temperature;humidity
45523;BME280;31254;51.680;5.394;2024-01-30T00:01:57;102686.97;;;8.98;93.83
45523;BME280;31254;51.680;5.394;2024-01-30T00:04:24;102657.47;;;8.75;94.30
45523;BME280;31254;51.680;5.394;2024-01-30T00:06:51;102454.47;;;7.69;93.59
45523;BME280;31254;51.680;5.394;2024-01-30T00:09:19;102676.38;;;8.93;94.34
45523;BME280;31254;51.680;5.394;2024-01-30T00:11:46;102688.03;;;8.95;93.61
45523;BME280;31254;51.680;5.394;2024-01-30T00:14:13;102675.00;;;9.00;94.06
45523;BME280;31254;51.680;5.394;2024-01-30T00:16:40;102643.09;;;8.73;93.47
45523;BME280;31254;51.680;5.394;2024-01-30T00:19:07;102476.94;;;7.87;93.42
45523;BME280;31254;51.680;5.394;2024-01-30T00:21:34;102420.56;;;7.46;93.36
45523;BME280;31254;51.680;5.394;2024-01-30T00:24:01;102678.72;;;8.99;93.42
45523;BME280;31254;51.680;5.394;2024-01-30T00:26:28;102602.25;;;8.59;93.57
45523;BME280;31254;51.680;5.394;2024-01-30T00:28:54;102659.94;;;8.94;93.56
45523;BME280;31254;51.680;5.394;2024-01-30T00:31:21;102616.03;;;8.56;93.88
45523;BME280;31254;51.680;5.394;2024-01-30T00:33:47;102631.22;;;8.74;93.77
45523;BME280;31254;51.680;5.394;2024-01-30T00:36:14;102567.66;;;8.31;94.19
45523;BME280;31254;51.680;5.394;2024-01-30T00:38:41;102584.03;;;8.45;93.97
45523;BME280;31254;51.680;5.394;2024-01-30T00:41:08;102618.84;;;8.54;93.91
45523;BME280;31254;51.680;5.394;2024-01-30T00:43:35;102456.16;;;7.72;93.99
45523;BME280;31254;51.680;5.394;2024-01-30T00:46:02;102659.25;;;8.91;93.90
45523;BME280;31254;51.680;5.394;2024-01-30T00:48:30;102658.47;;;8.89;94.04
45523;BME280;31254;51.680;5.394;2024-01-30T00:50:56;102575.72;;;8.32;94.13
45523;BME280;31254;51.680;5.394;2024-01-30T00:53:23;102376.75;;;7.22;93.76
45523;BME280;31254;51.680;5.394;2024-01-30T00:55:49;102648.75;;;8.85;94.03
45523;BME280;31254;51.680;5.394;2024-01-30T00:58:16;102463.13;;;7.76;93.99
45523;BME280;31254;51.680;5.394;2024-01-30T01:00:42;102623.63;;;8.65;94.08
45523;BME280;31254;51.680;5.394;2024-01-30T01:03:09;102566.41;;;8.36;94.10
45523;BME280;31254;51.680;5.394;2024-01-30T01:05:36;102643.22;;;8.86;93.86
45523;BME280;31254;51.680;5.394;2024-01-30T01:08:02;102393.09;;;7.36;94.26
45523;BME280;31254;51.680;5.394;2024-01-30T01:10:29;102491.16;;;7.92;93.82
45523;BME280;31254;51.680;5.394;2024-01-30T01:12:56;102599.72;;;8.56;94.20
45523;BME280;31254;51.680;5.394;2024-01-30T01:15:24;102534.22;;;8.14;93.88
45523;BME280;31254;51.680;5.394;2024-01-30T01:17:54;102642.41;;;8.84;94.34
45523;BME280;31254;51.680;5.394;2024-01-30T01:20:21;102645.22;;;8.83;94.02
45523;BME280;31254;51.680;5.394;2024-01-30T01:22:47;102632.69;;;8.80;94.11
45523;BME280;31254;51.680;5.394;2024-01-30T01:25:14;102504.75;;;8.06;94.03
45523;BME280;31254;51.680;5.394;2024-01-30T01:27:41;102523.59;;;8.10;94.02
45523;BME280;31254;51.680;5.394;2024-01-30T01:30:10;102639.88;;;8.81;94.27
45523;BME280;31254;51.680;5.394;2024-01-30T01:32:37;102575.97;;;8.44;94.01
45523;BME280;31254;51.680;5.394;2024-01-30T01:35:04;102583.94;;;8.47;94.40
45523;BME280;31254;51.680;5.394;2024-01-30T01:37:34;102454.16;;;7.59;94.21
45523;BME280;31254;51.680;5.394;2024-01-30T01:40:00;102540.53;;;8.15;94.25
45523;BME280;31254;51.680;5.394;2024-01-30T01:42:27;102515.28;;;8.13;93.91
45523;BME280;31254;51.680;5.394;2024-01-30T01:44:54;102622.00;;;8.77;93.97
45523;BME280;31254;51.680;5.394;2024-01-30T01:47:20;102389.13;;;7.42;94.03
45523;BME280;31254;51.680;5.394;2024-01-30T01:49:47;102639.28;;;8.76;94.13
45523;BME280;31254;51.680;5.394;2024-01-30T01:52:14;102619.47;;;8.74;94.25
45523;BME280;31254;51.680;5.394;2024-01-30T01:54:41;102561.66;;;8.40;94.01
45523;BME280;31254;51.680;5.394;2024-01-30T01:57:08;102601.47;;;8.57;93.99
45523;BME280;31254;51.680;5.394;2024-01-30T01:59:35;102580.84;;;8.53;94.23
45523;BME280;31254;51.680;5.394;2024-01-30T02:02:02;102349.81;;;7.03;93.92
45523;BME280;31254;51.680;5.394;2024-01-30T02:04:30;102623.63;;;8.65;94.55
45523;BME280;31254;51.680;5.394;2024-01-30T02:06:57;102600.25;;;8.47;94.91
45523;BME280;31254;51.680;5.394;2024-01-30T02:09:23;102523.91;;;8.05;94.73
45523;BME280;31254;51.680;5.394;2024-01-30T02:11:50;102615.56;;;8.64;94.71
45523;BME280;31254;51.680;5.394;2024-01-30T02:14:17;102557.47;;;8.34;94.66
45523;BME280;31254;51.680;5.394;2024-01-30T02:16:43;102542.03;;;8.35;94.51
45523;BME280;31254;51.680;5.394;2024-01-30T02:19:10;102528.03;;;8.27;94.22
45523;BME280;31254;51.680;5.394;2024-01-30T02:21:37;102426.03;;;7.60;94.13
45523;BME280;31254;51.680;5.394;2024-01-30T02:24:04;102495.97;;;7.87;93.97
45523;BME280;31254;51.680;5.394;2024-01-30T02:26:31;102579.28;;;8.49;94.55
45523;BME280;31254;51.680;5.394;2024-01-30T02:28:58;102529.44;;;8.18;94.40
45523;BME280;31254;51.680;5.394;2024-01-30T02:31:25;102562.94;;;8.34;94.40
45523;BME280;31254;51.680;5.394;2024-01-30T02:33:52;102510.91;;;8.10;94.51
45523;BME280;31254;51.680;5.394;2024-01-30T02:36:18;102498.16;;;7.96;94.47
45523;BME280;31254;51.680;5.394;2024-01-30T02:38:45;102522.47;;;8.14;94.21
45523;BME280;31254;51.680;5.394;2024-01-30T02:41:13;102626.19;;;8.68;94.56
45523;BME280;31254;51.680;5.394;2024-01-30T02:43:39;102574.16;;;8.44;94.12
45523;BME280;31254;51.680;5.394;2024-01-30T02:46:06;102372.00;;;7.25;94.09
45523;BME280;31254;51.680;5.394;2024-01-30T02:48:33;102588.25;;;8.51;94.00
45523;BME280;31254;51.680;5.394;2024-01-30T02:50:59;102565.25;;;8.40;94.33
45523;BME280;31254;51.680;5.394;2024-01-30T02:53:26;102593.72;;;8.65;94.29
45523;BME280;31254;51.680;5.394;2024-01-30T02:55:53;102463.44;;;7.71;94.08
45523;BME280;31254;51.680;5.394;2024-01-30T02:58:19;102261.91;;;6.75;94.43
45523;BME280;31254;51.680;5.394;2024-01-30T03:00:46;102585.66;;;8.64;94.38
45523;BME280;31254;51.680;5.394;2024-01-30T03:03:13;102538.13;;;8.24;94.50
45523;BME280;31254;51.680;5.394;2024-01-30T03:05:39;102000.47;;;4.94;93.65
45523;BME280;31254;51.680;5.394;2024-01-30T03:08:06;102579.22;;;8.65;94.13
45523;BME280;31254;51.680;5.394;2024-01-30T03:10:33;102285.88;;;6.83;93.95
45523;BME280;31254;51.680;5.394;2024-01-30T03:12:59;102537.25;;;8.24;94.30
45523;BME280;31254;51.680;5.394;2024-01-30T03:15:26;102562.38;;;8.44;94.21
45523;BME280;31254;51.680;5.394;2024-01-30T03:17:53;102576.78;;;8.60;94.06
45523;BME280;31254;51.680;5.394;2024-01-30T03:20:20;102448.06;;;7.86;93.98
45523;BME280;31254;51.680;5.394;2024-01-30T03:22:47;102243.28;;;6.69;93.90
45523;BME280;31254;51.680;5.394;2024-01-30T03:25:14;102561.44;;;8.59;94.32
45523;BME280;31254;51.680;5.394;2024-01-30T03:27:41;102201.00;;;6.34;93.83
45523;BME280;31254;51.680;5.394;2024-01-30T03:30:08;102422.69;;;7.71;94.28
45523;BME280;31254;51.680;5.394;2024-01-30T03:32:35;102561.53;;;8.57;94.13
45523;BME280;31254;51.680;5.394;2024-01-30T03:35:01;102572.41;;;8.57;93.89
45523;BME280;31254;51.680;5.394;2024-01-30T03:37:28;102547.28;;;8.38;94.16
45523;BME280;31254;51.680;5.394;2024-01-30T03:39:55;102570.66;;;8.56;94.31
45523;BME280;31254;51.680;5.394;2024-01-30T03:42:21;102576.19;;;8.55;94.12
45523;BME280;31254;51.680;5.394;2024-01-30T03:44:48;102430.53;;;7.76;94.31
45523;BME280;31254;51.680;5.394;2024-01-30T03:47:18;102602.34;;;8.57;94.11
45523;BME280;31254;51.680;5.394;2024-01-30T03:49:45;102571.47;;;8.58;94.29
45523;BME280;31254;51.680;5.394;2024-01-30T03:52:12;102457.75;;;7.90;94.28
45523;BME280;31254;51.680;5.394;2024-01-30T03:54:38;102306.22;;;6.90;94.19
45523;BME280;31254;51.680;5.394;2024-01-30T03:57:05;102510.25;;;8.21;94.04
45523;BME280;31254;51.680;5.394;2024-01-30T03:59:32;102484.09;;;8.04;94.18
45523;BME280;31254;51.680;5.394;2024-01-30T04:01:59;102489.22;;;7.94;94.42
45523;BME280;31254;51.680;5.394;2024-01-30T04:04:26;102467.66;;;7.91;94.46
45523;BME280;31254;51.680;5.394;2024-01-30T04:06:53;102539.03;;;8.39;94.34
45523;BME280;31254;51.680;5.394;2024-01-30T04:09:20;102388.56;;;7.51;94.00
45523;BME280;31254;51.680;5.394;2024-01-30T04:11:46;102389.97;;;7.58;94.00
45523;BME280;31254;51.680;5.394;2024-01-30T04:14:13;102571.03;;;8.65;94.21
45523;BME280;31254;51.680;5.394;2024-01-30T04:16:40;102548.69;;;8.45;94.00
45523;BME280;31254;51.680;5.394;2024-01-30T04:19:06;102409.97;;;7.72;93.74
45523;BME280;31254;51.680;5.394;2024-01-30T04:21:33;102373.13;;;7.37;93.97
45523;BME280;31254;51.680;5.394;2024-01-30T04:23:59;102560.16;;;8.65;93.72
45523;BME280;31254;51.680;5.394;2024-01-30T04:26:26;102513.75;;;8.23;93.96
45523;BME280;31254;51.680;5.394;2024-01-30T04:28:52;102411.69;;;7.58;94.11
45523;BME280;31254;51.680;5.394;2024-01-30T04:31:19;102544.94;;;8.62;94.26
45523;BME280;31254;51.680;5.394;2024-01-30T04:33:46;102555.00;;;8.60;94.15
45523;BME280;31254;51.680;5.394;2024-01-30T04:36:12;102361.59;;;7.48;93.98
45523;BME280;31254;51.680;5.394;2024-01-30T04:38:39;102475.97;;;8.18;94.04
45523;BME280;31254;51.680;5.394;2024-01-30T04:41:05;102471.69;;;8.14;94.31
45523;BME280;31254;51.680;5.394;2024-01-30T04:43:32;102544.13;;;8.60;94.07
45523;BME280;31254;51.680;5.394;2024-01-30T04:45:58;102457.59;;;8.08;94.05
45523;BME280;31254;51.680;5.394;2024-01-30T04:48:25;102553.19;;;8.60;93.99
45523;BME280;31254;51.680;5.394;2024-01-30T04:50:52;102424.56;;;7.85;94.11
45523;BME280;31254;51.680;5.394;2024-01-30T04:53:18;102352.09;;;7.41;94.01
45523;BME280;31254;51.680;5.394;2024-01-30T04:55:45;102511.13;;;8.21;94.43
45523;BME280;31254;51.680;5.394;2024-01-30T04:58:12;102503.78;;;8.38;94.20
45523;BME280;31254;51.680;5.394;2024-01-30T05:00:38;102465.34;;;7.99;94.08
45523;BME280;31254;51.680;5.394;2024-01-30T05:03:05;102524.44;;;8.40;94.15
45523;BME280;31254;51.680;5.394;2024-01-30T05:05:31;102480.44;;;8.19;94.19
45523;BME280;31254;51.680;5.394;2024-01-30T05:07:58;102486.66;;;8.21;94.23
45523;BME280;31254;51.680;5.394;2024-01-30T05:10:24;102551.31;;;8.47;94.63
45523;BME280;31254;51.680;5.394;2024-01-30T05:12:51;102543.06;;;8.48;94.94
45523;BME280;31254;51.680;5.394;2024-01-30T05:15:19;102549.34;;;8.49;94.72
45523;BME280;31254;51.680;5.394;2024-01-30T05:17:45;102544.44;;;8.55;94.24
45523;BME280;31254;51.680;5.394;2024-01-30T05:20:12;102538.38;;;8.50;94.46
45523;BME280;31254;51.680;5.394;2024-01-30T05:22:39;102471.59;;;8.16;94.20
45523;BME280;31254;51.680;5.394;2024-01-30T05:25:12;102313.00;;;7.29;94.27
45523;BME280;31254;51.680;5.394;2024-01-30T05:27:39;102527.94;;;8.58;94.32
45523;BME280;31254;51.680;5.394;2024-01-30T05:30:06;102459.25;;;8.10;94.10
45523;BME280;31254;51.680;5.394;2024-01-30T05:32:33;102534.63;;;8.53;94.04
45523;BME280;31254;51.680;5.394;2024-01-30T05:35:00;102509.22;;;8.38;94.07
45523;BME280;31254;51.680;5.394;2024-01-30T05:37:27;102480.63;;;8.16;94.43
45523;BME280;31254;51.680;5.394;2024-01-30T05:39:53;102392.19;;;7.66;93.93
45523;BME280;31254;51.680;5.394;2024-01-30T05:42:20;102544.34;;;8.57;94.44
45523;BME280;31254;51.680;5.394;2024-01-30T05:44:46;102417.19;;;7.87;94.45
45523;BME280;31254;51.680;5.394;2024-01-30T05:47:13;102403.91;;;7.82;94.27
45523;BME280;31254;51.680;5.394;2024-01-30T05:49:39;102459.75;;;8.17;94.09
45523;BME280;31254;51.680;5.394;2024-01-30T05:52:06;102440.81;;;8.01;94.21
45523;BME280;31254;51.680;5.394;2024-01-30T05:54:33;102489.41;;;8.36;94.15
45523;BME280;31254;51.680;5.394;2024-01-30T05:57:00;102429.63;;;7.91;94.47
45523;BME280;31254;51.680;5.394;2024-01-30T05:59:27;102209.88;;;6.68;93.67
45523;BME280;31254;51.680;5.394;2024-01-30T06:01:53;102464.59;;;8.12;94.10
45523;BME280;31254;51.680;5.394;2024-01-30T06:04:20;102560.44;;;8.60;94.21
45523;BME280;31254;51.680;5.394;2024-01-30T06:06:47;102478.41;;;8.23;94.11
45523;BME280;31254;51.680;5.394;2024-01-30T06:09:13;102367.75;;;7.52;93.80
45523;BME280;31254;51.680;5.394;2024-01-30T06:11:40;102150.66;;;6.30;93.99
45523;BME280;31254;51.680;5.394;2024-01-30T06:14:07;102397.81;;;7.63;94.19
45523;BME280;31254;51.680;5.394;2024-01-30T06:16:33;102379.69;;;7.63;94.52
45523;BME280;31254;51.680;5.394;2024-01-30T06:19:00;102493.94;;;8.21;94.58
45523;BME280;31254;51.680;5.394;2024-01-30T06:21:27;102475.06;;;8.18;94.26
45523;BME280;31254;51.680;5.394;2024-01-30T06:23:53;102405.91;;;7.79;94.31
45523;BME280;31254;51.680;5.394;2024-01-30T06:26:20;102549.28;;;8.65;94.71
45523;BME280;31254;51.680;5.394;2024-01-30T06:28:46;102399.97;;;7.72;94.38
45523;BME280;31254;51.680;5.394;2024-01-30T06:31:13;102275.94;;;6.98;94.54
45523;BME280;31254;51.680;5.394;2024-01-30T06:33:39;102563.78;;;8.65;94.50
45523;BME280;31254;51.680;5.394;2024-01-30T06:36:08;102455.56;;;8.11;94.67
45523;BME280;31254;51.680;5.394;2024-01-30T06:38:35;102555.44;;;8.68;94.58
45523;BME280;31254;51.680;5.394;2024-01-30T06:41:01;102562.69;;;8.68;94.42
45523;BME280;31254;51.680;5.394;2024-01-30T06:43:28;102444.97;;;7.92;94.75
45523;BME280;31254;51.680;5.394;2024-01-30T06:45:55;102518.44;;;8.35;94.56
45523;BME280;31254;51.680;5.394;2024-01-30T06:48:21;102349.28;;;7.42;94.18
45523;BME280;31254;51.680;5.394;2024-01-30T06:50:48;102440.41;;;7.93;94.42
45523;BME280;31254;51.680;5.394;2024-01-30T06:53:15;102327.34;;;7.31;94.08
45523;BME280;31254;51.680;5.394;2024-01-30T06:55:42;102533.03;;;8.49;94.17
45523;BME280;31254;51.680;5.394;2024-01-30T06:58:08;102407.06;;;7.75;93.99
45523;BME280;31254;51.680;5.394;2024-01-30T07:00:35;102447.28;;;7.98;94.54
45523;BME280;31254;51.680;5.394;2024-01-30T07:03:02;102562.41;;;8.58;94.22
45523;BME280;31254;51.680;5.394;2024-01-30T07:05:29;102544.84;;;8.33;94.46
45523;BME280;31254;51.680;5.394;2024-01-30T07:07:56;102408.66;;;7.63;94.27
45523;BME280;31254;51.680;5.394;2024-01-30T07:10:23;102596.25;;;8.68;94.55
45523;BME280;31254;51.680;5.394;2024-01-30T07:12:50;102458.91;;;7.86;94.78
45523;BME280;31254;51.680;5.394;2024-01-30T07:15:16;102326.78;;;7.10;94.36
45523;BME280;31254;51.680;5.394;2024-01-30T07:17:46;102227.84;;;6.55;94.31
45523;BME280;31254;51.680;5.394;2024-01-30T07:20:12;102569.19;;;8.51;94.54
45523;BME280;31254;51.680;5.394;2024-01-30T07:22:43;102578.31;;;8.50;94.91
45523;BME280;31254;51.680;5.394;2024-01-30T07:25:10;102544.47;;;8.39;95.02
45523;BME280;31254;51.680;5.394;2024-01-30T07:27:37;102635.28;;;8.67;94.98
45523;BME280;31254;51.680;5.394;2024-01-30T07:30:04;102488.03;;;7.98;94.42
45523;BME280;31254;51.680;5.394;2024-01-30T07:32:31;102624.41;;;8.67;95.18
45523;BME280;31254;51.680;5.394;2024-01-30T07:34:58;102610.91;;;8.66;95.28
45523;BME280;31254;51.680;5.394;2024-01-30T07:37:34;102425.47;;;7.55;94.96
45523;BME280;31254;51.680;5.394;2024-01-30T07:40:02;102614.41;;;8.68;95.12
45523;BME280;31254;51.680;5.394;2024-01-30T07:42:29;102562.84;;;8.36;95.01
45523;BME280;31254;51.680;5.394;2024-01-30T07:44:56;102345.19;;;7.05;95.00
45523;BME280;31254;51.680;5.394;2024-01-30T07:47:22;102621.78;;;8.66;95.45
45523;BME280;31254;51.680;5.394;2024-01-30T07:49:49;102323.41;;;6.90;94.97
45523;BME280;31254;51.680;5.394;2024-01-30T07:52:16;102623.56;;;8.67;95.54
45523;BME280;31254;51.680;5.394;2024-01-30T07:54:49;102400.97;;;7.41;95.49
45523;BME280;31254;51.680;5.394;2024-01-30T07:57:17;102545.50;;;8.22;95.46
45523;BME280;31254;51.680;5.394;2024-01-30T07:59:44;102625.28;;;8.68;95.66
45523;BME280;31254;51.680;5.394;2024-01-30T08:02:14;102220.50;;;5.93;94.95
45523;BME280;31254;51.680;5.394;2024-01-30T08:04:41;102541.22;;;8.18;94.83
45523;BME280;31254;51.680;5.394;2024-01-30T08:07:08;102595.81;;;8.46;95.33
45523;BME280;31254;51.680;5.394;2024-01-30T08:09:35;102571.84;;;8.36;95.33
45523;BME280;31254;51.680;5.394;2024-01-30T08:12:01;102630.97;;;8.49;95.17
45523;BME280;31254;51.680;5.394;2024-01-30T08:14:28;102637.94;;;8.69;95.53
45523;BME280;31254;51.680;5.394;2024-01-30T08:16:55;102515.03;;;8.01;95.26
45523;BME280;31254;51.680;5.394;2024-01-30T08:19:21;102420.84;;;7.41;95.31
45523;BME280;31254;51.680;5.394;2024-01-30T08:21:48;102443.66;;;7.53;94.97
45523;BME280;31254;51.680;5.394;2024-01-30T08:24:15;102515.84;;;8.03;95.30
45523;BME280;31254;51.680;5.394;2024-01-30T08:26:41;102638.41;;;8.75;95.71
45523;BME280;31254;51.680;5.394;2024-01-30T08:29:08;102596.91;;;8.41;95.43
45523;BME280;31254;51.680;5.394;2024-01-30T08:31:36;102559.81;;;8.26;95.55
45523;BME280;31254;51.680;5.394;2024-01-30T08:34:02;102599.50;;;8.45;95.87
45523;BME280;31254;51.680;5.394;2024-01-30T08:36:29;102659.72;;;8.83;95.39
45523;BME280;31254;51.680;5.394;2024-01-30T08:38:56;102577.63;;;8.46;95.71
45523;BME280;31254;51.680;5.394;2024-01-30T08:41:29;102590.78;;;8.54;95.62
45523;BME280;31254;51.680;5.394;2024-01-30T08:43:56;102381.75;;;7.13;95.05
45523;BME280;31254;51.680;5.394;2024-01-30T08:46:23;102336.31;;;6.71;94.82
45523;BME280;31254;51.680;5.394;2024-01-30T08:48:50;102572.78;;;8.51;95.16
45523;BME280;31254;51.680;5.394;2024-01-30T08:51:16;102614.78;;;8.76;95.54
45523;BME280;31254;51.680;5.394;2024-01-30T08:53:43;102632.72;;;8.94;95.37
45523;BME280;31254;51.680;5.394;2024-01-30T08:56:10;102417.94;;;7.75;95.24
45523;BME280;31254;51.680;5.394;2024-01-30T08:58:36;102559.97;;;8.53;95.46
45523;BME280;31254;51.680;5.394;2024-01-30T09:01:03;102499.31;;;8.06;95.34
45523;BME280;31254;51.680;5.394;2024-01-30T09:03:32;102581.47;;;8.72;95.36
45523;BME280;31254;51.680;5.394;2024-01-30T09:05:58;102637.47;;;9.05;95.15
45523;BME280;31254;51.680;5.394;2024-01-30T09:08:25;102482.09;;;8.22;95.23
45523;BME280;31254;51.680;5.394;2024-01-30T09:10:51;102607.13;;;8.83;95.25
45523;BME280;31254;51.680;5.394;2024-01-30T09:13:18;102602.19;;;8.89;95.20
45523;BME280;31254;51.680;5.394;2024-01-30T09:15:45;102638.00;;;9.12;95.05
45523;BME280;31254;51.680;5.394;2024-01-30T09:18:12;102596.44;;;8.80;95.46
45523;BME280;31254;51.680;5.394;2024-01-30T09:20:39;102402.00;;;7.68;95.73
45523;BME280;31254;51.680;5.394;2024-01-30T09:23:06;102523.00;;;8.35;95.43
45523;BME280;31254;51.680;5.394;2024-01-30T09:25:32;102590.78;;;8.83;95.25
45523;BME280;31254;51.680;5.394;2024-01-30T09:28:00;102576.78;;;8.74;95.79
45523;BME280;31254;51.680;5.394;2024-01-30T09:30:27;102656.63;;;9.18;95.69
45523;BME280;31254;51.680;5.394;2024-01-30T09:32:53;102672.78;;;9.21;95.53
45523;BME280;31254;51.680;5.394;2024-01-30T09:35:20;102609.56;;;8.87;95.88
45523;BME280;31254;51.680;5.394;2024-01-30T09:37:47;102435.97;;;7.76;95.64
45523;BME280;31254;51.680;5.394;2024-01-30T09:40:14;102574.66;;;8.65;95.79
45523;BME280;31254;51.680;5.394;2024-01-30T09:42:50;102454.47;;;7.99;95.43
45523;BME280;31254;51.680;5.394;2024-01-30T09:45:18;102669.78;;;9.26;95.45
45523;BME280;31254;51.680;5.394;2024-01-30T09:47:45;102670.63;;;9.26;95.85
45523;BME280;31254;51.680;5.394;2024-01-30T09:50:13;102668.72;;;9.28;95.76
45523;BME280;31254;51.680;5.394;2024-01-30T09:52:43;102431.63;;;7.73;95.24
45523;BME280;31254;51.680;5.394;2024-01-30T09:55:10;102407.25;;;7.72;95.05
45523;BME280;31254;51.680;5.394;2024-01-30T09:57:37;102679.31;;;9.33;95.46
45523;BME280;31254;51.680;5.394;2024-01-30T10:00:04;102668.44;;;9.33;95.59
45523;BME280;31254;51.680;5.394;2024-01-30T10:02:33;102452.25;;;8.06;95.21
45523;BME280;31254;51.680;5.394;2024-01-30T10:05:00;102593.72;;;8.80;95.73
45523;BME280;31254;51.680;5.394;2024-01-30T10:07:27;102682.81;;;9.35;95.81
45523;BME280;31254;51.680;5.394;2024-01-30T10:09:54;102687.97;;;9.40;95.82
45523;BME280;31254;51.680;5.394;2024-01-30T10:12:26;102687.06;;;9.39;95.49
45523;BME280;31254;51.680;5.394;2024-01-30T10:14:52;102629.72;;;8.99;95.27
45523;BME280;31254;51.680;5.394;2024-01-30T10:17:20;102453.44;;;8.02;95.43
45523;BME280;31254;51.680;5.394;2024-01-30T10:19:59;102560.06;;;8.52;95.24
45523;BME280;31254;51.680;5.394;2024-01-30T10:22:26;102491.28;;;8.19;95.27
45523;BME280;31254;51.680;5.394;2024-01-30T10:24:53;102617.75;;;9.02;95.81
45523;BME280;31254;51.680;5.394;2024-01-30T10:27:26;102703.03;;;9.45;95.82
45523;BME280;31254;51.680;5.394;2024-01-30T10:29:54;102681.06;;;9.48;95.66
45523;BME280;31254;51.680;5.394;2024-01-30T10:32:20;102647.88;;;9.13;95.92
45523;BME280;31254;51.680;5.394;2024-01-30T10:34:47;102711.13;;;9.47;96.04
45523;BME280;31254;51.680;5.394;2024-01-30T10:37:15;102689.13;;;9.50;96.29
45523;BME280;31254;51.680;5.394;2024-01-30T10:39:44;102640.59;;;9.28;95.73
45523;BME280;31254;51.680;5.394;2024-01-30T10:42:13;102452.75;;;8.13;95.77
45523;BME280;31254;51.680;5.394;2024-01-30T10:45:06;102694.97;;;9.58;96.06
45523;BME280;31254;51.680;5.394;2024-01-30T10:47:36;102481.16;;;8.37;95.84
45523;BME280;31254;51.680;5.394;2024-01-30T10:50:03;102581.66;;;8.84;95.80
45523;BME280;31254;51.680;5.394;2024-01-30T10:52:31;102539.97;;;8.69;95.99
45523;BME280;31254;51.680;5.394;2024-01-30T10:54:58;102702.66;;;9.66;96.17
45523;BME280;31254;51.680;5.394;2024-01-30T10:57:26;102735.25;;;9.67;96.13
45523;BME280;31254;51.680;5.394;2024-01-30T10:59:57;102611.13;;;9.20;96.15
45523;BME280;31254;51.680;5.394;2024-01-30T11:02:25;102695.81;;;9.73;96.06
45523;BME280;31254;51.680;5.394;2024-01-30T11:04:58;102691.94;;;9.77;95.60
45523;BME280;31254;51.680;5.394;2024-01-30T11:07:27;102394.09;;;7.94;95.80
45523;BME280;31254;51.680;5.394;2024-01-30T11:12:25;102710.00;;;9.78;96.51
45523;BME280;31254;51.680;5.394;2024-01-30T11:15:28;102630.06;;;9.36;96.57
45523;BME280;31254;51.680;5.394;2024-01-30T11:17:56;102692.03;;;9.76;95.85
45523;BME280;31254;51.680;5.394;2024-01-30T11:20:29;102711.28;;;9.87;95.77
45523;BME280;31254;51.680;5.394;2024-01-30T11:22:58;102727.53;;;9.88;95.91
45523;BME280;31254;51.680;5.394;2024-01-30T11:25:25;102536.25;;;8.99;95.71
45523;BME280;31254;51.680;5.394;2024-01-30T11:27:54;102671.75;;;9.80;95.92
45523;BME280;31254;51.680;5.394;2024-01-30T11:30:28;102679.41;;;10.02;95.30
45523;BME280;31254;51.680;5.394;2024-01-30T11:33:01;102682.78;;;10.05;95.24
45523;BME280;31254;51.680;5.394;2024-01-30T11:35:35;102698.97;;;10.09;95.23
45523;BME280;31254;51.680;5.394;2024-01-30T11:38:03;102690.38;;;10.15;95.15
45523;BME280;31254;51.680;5.394;2024-01-30T11:40:31;102653.56;;;9.80;95.00
45523;BME280;31254;51.680;5.394;2024-01-30T11:43:00;102634.28;;;9.83;95.04
45523;BME280;31254;51.680;5.394;2024-01-30T11:45:27;102684.16;;;10.13;95.44
45523;BME280;31254;51.680;5.394;2024-01-30T11:47:54;102725.72;;;10.16;94.97
45523;BME280;31254;51.680;5.394;2024-01-30T11:50:21;102702.84;;;10.19;94.79
45523;BME280;31254;51.680;5.394;2024-01-30T11:52:48;102457.25;;;8.71;94.66
45523;BME280;31254;51.680;5.394;2024-01-30T11:55:15;102670.25;;;10.03;94.64
45523;BME280;31254;51.680;5.394;2024-01-30T11:57:42;102629.25;;;9.77;94.56
45523;BME280;31254;51.680;5.394;2024-01-30T12:00:15;102450.94;;;8.71;94.44
45523;BME280;31254;51.680;5.394;2024-01-30T12:02:43;102536.72;;;9.20;94.65
45523;BME280;31254;51.680;5.394;2024-01-30T12:05:10;102520.41;;;9.05;94.65
45523;BME280;31254;51.680;5.394;2024-01-30T12:07:37;102720.28;;;10.16;95.38
45523;BME280;31254;51.680;5.394;2024-01-30T12:10:04;102684.28;;;9.97;94.72
45523;BME280;31254;51.680;5.394;2024-01-30T12:12:32;102596.97;;;9.57;94.53
45523;BME280;31254;51.680;5.394;2024-01-30T12:14:58;102651.63;;;9.82;94.62
45523;BME280;31254;51.680;5.394;2024-01-30T12:17:30;102665.31;;;9.95;94.61
45523;BME280;31254;51.680;5.394;2024-01-30T12:20:11;102667.94;;;9.97;95.03
45523;BME280;31254;51.680;5.394;2024-01-30T12:22:43;102707.03;;;10.10;94.78
45523;BME280;31254;51.680;5.394;2024-01-30T12:25:13;102661.28;;;10.01;94.37
45523;BME280;31254;51.680;5.394;2024-01-30T12:27:42;102670.16;;;10.04;94.75
45523;BME280;31254;51.680;5.394;2024-01-30T12:30:11;102740.19;;;10.31;94.94
45523;BME280;31254;51.680;5.394;2024-01-30T12:32:42;102730.16;;;10.32;94.42
45523;BME280;31254;51.680;5.394;2024-01-30T12:37:37;102677.88;;;9.98;94.68
45523;BME280;31254;51.680;5.394;2024-01-30T12:40:05;102178.66;;;7.06;93.86
45523;BME280;31254;51.680;5.394;2024-01-30T12:42:32;102748.09;;;10.36;94.09
45523;BME280;31254;51.680;5.394;2024-01-30T12:44:59;102727.28;;;10.20;93.84
45523;BME280;31254;51.680;5.394;2024-01-30T12:47:26;102540.94;;;9.11;94.12
45523;BME280;31254;51.680;5.394;2024-01-30T12:49:53;102625.06;;;9.57;93.89
45523;BME280;31254;51.680;5.394;2024-01-30T12:52:21;102639.97;;;9.66;93.78
45523;BME280;31254;51.680;5.394;2024-01-30T12:54:49;102458.81;;;8.61;93.23
45523;BME280;31254;51.680;5.394;2024-01-30T12:57:29;102416.19;;;8.33;93.17
45523;BME280;31254;51.680;5.394;2024-01-30T12:59:56;102760.34;;;10.43;93.10
45523;BME280;31254;51.680;5.394;2024-01-30T13:02:22;102747.50;;;10.31;93.16
45523;BME280;31254;51.680;5.394;2024-01-30T13:04:49;102666.41;;;9.78;92.72
45523;BME280;31254;51.680;5.394;2024-01-30T13:07:16;102692.47;;;9.97;92.89